sensor_id;sensor_type;location;lat;lon;timestamp;P1;durP1;ratioP1;P2;durP2;ratioP2
5452;SDS011;2749;53.576;9.822;2022-08-19T00:00:15;9.73;;;8.77;;
5452;SDS011;2749;53.576;9.822;2022-08-19T00:02:41;9.40;;;8.50;;
5452;SDS011;2749;53.576;9.822;2022-08-19T00:05:08;10.50;;;9.30;;
5452;SDS011;2749;53.576;9.822;2022-08-19T00:07:34;9.03;;;8.33;;
5452;SDS011;2749;53.576;9.822;2022-08-19T00:10:00;10.10;;;9.10;;
5452;SDS011;2749;53.576;9.822;2022-08-19T00:12:26;8.53;;;7.83;;
5452;SDS011;2749;53.576;9.822;2022-08-19T00:14:52;8.20;;;7.47;;
5452;SDS011;2749;53.576;9.822;2022-08-19T00:17:19;10.03;;;9.00;;
5452;SDS011;2749;53.576;9.822;2022-08-19T00:19:45;12.43;;;11.03;;
5452;SDS011;2749;53.576;9.822;2022-08-19T00:22:11;10.07;;;9.07;;
5452;SDS011;2749;53.576;9.822;2022-08-19T00:24:37;9.50;;;8.53;;
5452;SDS011;2749;53.576;9.822;2022-08-19T00:27:04;10.93;;;9.83;;
5452;SDS011;2749;53.576;9.822;2022-08-19T00:29:30;11.80;;;10.70;;
5452;SDS011;2749;53.576;9.822;2022-08-19T00:31:56;12.50;;;10.63;;
5452;SDS011;2749;53.576;9.822;2022-08-19T00:34:23;9.50;;;8.60;;
5452;SDS011;2749;53.576;9.822;2022-08-19T00:36:51;12.33;;;11.13;;
5452;SDS011;2749;53.576;9.822;2022-08-19T00:39:17;13.93;;;12.43;;
5452;SDS011;2749;53.576;9.822;2022-08-19T00:41:43;15.80;;;13.37;;
5452;SDS011;2749;53.576;9.822;2022-08-19T00:44:14;14.43;;;12.93;;
5452;SDS011;2749;53.576;9.822;2022-08-19T00:46:41;15.43;;;13.83;;
5452;SDS011;2749;53.576;9.822;2022-08-19T00:49:27;15.13;;;13.63;;
5452;SDS011;2749;53.576;9.822;2022-08-19T00:52:00;17.93;;;14.73;;
5452;SDS011;2749;53.576;9.822;2022-08-19T00:54:27;16.00;;;14.10;;
5452;SDS011;2749;53.576;9.822;2022-08-19T00:56:56;19.47;;;15.40;;
5452;SDS011;2749;53.576;9.822;2022-08-19T00:59:22;21.27;;;17.20;;
5452;SDS011;2749;53.576;9.822;2022-08-19T01:01:48;20.87;;;14.27;;
5452;SDS011;2749;53.576;9.822;2022-08-19T01:04:14;19.70;;;16.90;;
5452;SDS011;2749;53.576;9.822;2022-08-19T01:06:40;25.27;;;18.40;;
5452;SDS011;2749;53.576;9.822;2022-08-19T01:09:06;21.37;;;18.63;;
5452;SDS011;2749;53.576;9.822;2022-08-19T01:11:33;22.67;;;18.20;;
5452;SDS011;2749;53.576;9.822;2022-08-19T01:14:00;21.37;;;19.03;;
5452;SDS011;2749;53.576;9.822;2022-08-19T01:16:27;21.07;;;16.63;;
5452;SDS011;2749;53.576;9.822;2022-08-19T01:18:54;21.53;;;17.90;;
5452;SDS011;2749;53.576;9.822;2022-08-19T01:21:26;20.53;;;18.40;;
5452;SDS011;2749;53.576;9.822;2022-08-19T01:23:55;21.60;;;19.23;;
5452;SDS011;2749;53.576;9.822;2022-08-19T01:26:22;22.63;;;18.90;;
5452;SDS011;2749;53.576;9.822;2022-08-19T01:28:49;23.17;;;19.63;;
5452;SDS011;2749;53.576;9.822;2022-08-19T01:31:17;20.27;;;18.13;;
5452;SDS011;2749;53.576;9.822;2022-08-19T01:33:43;22.23;;;18.37;;
5452;SDS011;2749;53.576;9.822;2022-08-19T01:36:11;21.10;;;18.83;;
5452;SDS011;2749;53.576;9.822;2022-08-19T01:38:38;27.33;;;18.47;;
5452;SDS011;2749;53.576;9.822;2022-08-19T01:41:05;26.60;;;19.17;;
5452;SDS011;2749;53.576;9.822;2022-08-19T01:43:31;20.43;;;17.80;;
5452;SDS011;2749;53.576;9.822;2022-08-19T01:45:57;26.60;;;18.20;;
5452;SDS011;2749;53.576;9.822;2022-08-19T01:48:23;28.00;;;20.40;;
5452;SDS011;2749;53.576;9.822;2022-08-19T01:50:49;28.23;;;19.37;;
5452;SDS011;2749;53.576;9.822;2022-08-19T01:53:15;27.90;;;21.90;;
5452;SDS011;2749;53.576;9.822;2022-08-19T01:55:42;29.33;;;19.67;;
5452;SDS011;2749;53.576;9.822;2022-08-19T01:58:11;34.33;;;21.57;;
5452;SDS011;2749;53.576;9.822;2022-08-19T02:00:37;29.37;;;20.97;;
5452;SDS011;2749;53.576;9.822;2022-08-19T02:03:04;27.83;;;21.47;;
5452;SDS011;2749;53.576;9.822;2022-08-19T02:05:31;31.53;;;20.80;;
5452;SDS011;2749;53.576;9.822;2022-08-19T02:07:57;36.53;;;21.83;;
5452;SDS011;2749;53.576;9.822;2022-08-19T02:10:24;29.43;;;22.20;;
5452;SDS011;2749;53.576;9.822;2022-08-19T02:12:50;27.40;;;19.63;;
5452;SDS011;2749;53.576;9.822;2022-08-19T02:15:17;40.73;;;25.17;;
5452;SDS011;2749;53.576;9.822;2022-08-19T02:17:44;36.67;;;24.37;;
5452;SDS011;2749;53.576;9.822;2022-08-19T02:20:10;36.47;;;24.37;;
5452;SDS011;2749;53.576;9.822;2022-08-19T02:22:37;38.23;;;25.57;;
5452;SDS011;2749;53.576;9.822;2022-08-19T02:25:06;38.00;;;24.30;;
5452;SDS011;2749;53.576;9.822;2022-08-19T02:27:32;37.50;;;26.30;;
5452;SDS011;2749;53.576;9.822;2022-08-19T02:29:58;47.03;;;28.23;;
5452;SDS011;2749;53.576;9.822;2022-08-19T02:32:25;44.33;;;29.17;;
5452;SDS011;2749;53.576;9.822;2022-08-19T02:34:52;47.70;;;27.13;;
5452;SDS011;2749;53.576;9.822;2022-08-19T02:37:18;41.47;;;27.40;;
5452;SDS011;2749;53.576;9.822;2022-08-19T02:40:03;41.20;;;28.47;;
5452;SDS011;2749;53.576;9.822;2022-08-19T02:42:29;48.27;;;30.00;;
5452;SDS011;2749;53.576;9.822;2022-08-19T02:44:56;44.93;;;29.80;;
5452;SDS011;2749;53.576;9.822;2022-08-19T02:47:22;50.30;;;30.80;;
5452;SDS011;2749;53.576;9.822;2022-08-19T02:49:48;41.63;;;30.17;;
5452;SDS011;2749;53.576;9.822;2022-08-19T02:52:14;42.10;;;27.23;;
5452;SDS011;2749;53.576;9.822;2022-08-19T02:54:40;37.20;;;24.90;;
5452;SDS011;2749;53.576;9.822;2022-08-19T02:57:07;43.20;;;28.80;;
5452;SDS011;2749;53.576;9.822;2022-08-19T02:59:33;36.37;;;26.67;;
5452;SDS011;2749;53.576;9.822;2022-08-19T03:01:59;41.80;;;25.60;;
5452;SDS011;2749;53.576;9.822;2022-08-19T03:04:25;39.17;;;26.60;;
5452;SDS011;2749;53.576;9.822;2022-08-19T03:06:51;47.03;;;28.17;;
5452;SDS011;2749;53.576;9.822;2022-08-19T03:09:18;36.30;;;25.27;;
5452;SDS011;2749;53.576;9.822;2022-08-19T03:11:44;39.00;;;27.63;;
5452;SDS011;2749;53.576;9.822;2022-08-19T03:14:10;35.90;;;26.83;;
5452;SDS011;2749;53.576;9.822;2022-08-19T03:16:43;34.37;;;26.97;;
5452;SDS011;2749;53.576;9.822;2022-08-19T03:19:10;41.33;;;25.33;;
5452;SDS011;2749;53.576;9.822;2022-08-19T03:21:36;29.80;;;20.67;;
5452;SDS011;2749;53.576;9.822;2022-08-19T03:24:03;34.87;;;26.10;;
5452;SDS011;2749;53.576;9.822;2022-08-19T03:26:30;37.83;;;26.17;;
5452;SDS011;2749;53.576;9.822;2022-08-19T03:29:00;41.23;;;27.87;;
5452;SDS011;2749;53.576;9.822;2022-08-19T03:31:26;46.00;;;30.97;;
5452;SDS011;2749;53.576;9.822;2022-08-19T03:33:52;36.73;;;27.93;;
5452;SDS011;2749;53.576;9.822;2022-08-19T03:36:20;39.83;;;29.80;;
5452;SDS011;2749;53.576;9.822;2022-08-19T03:38:49;37.53;;;27.20;;
5452;SDS011;2749;53.576;9.822;2022-08-19T03:41:19;35.27;;;28.23;;
5452;SDS011;2749;53.576;9.822;2022-08-19T03:43:45;38.90;;;28.97;;
5452;SDS011;2749;53.576;9.822;2022-08-19T03:46:12;39.90;;;32.07;;
5452;SDS011;2749;53.576;9.822;2022-08-19T03:48:39;36.50;;;28.80;;
5452;SDS011;2749;53.576;9.822;2022-08-19T03:51:06;46.13;;;30.70;;
5452;SDS011;2749;53.576;9.822;2022-08-19T03:53:32;39.03;;;28.73;;
5452;SDS011;2749;53.576;9.822;2022-08-19T03:55:59;33.20;;;26.07;;
5452;SDS011;2749;53.576;9.822;2022-08-19T03:58:25;35.17;;;24.93;;
5452;SDS011;2749;53.576;9.822;2022-08-19T04:00:53;32.27;;;25.47;;
5452;SDS011;2749;53.576;9.822;2022-08-19T04:03:20;32.33;;;24.20;;
5452;SDS011;2749;53.576;9.822;2022-08-19T04:05:46;33.67;;;24.80;;
5452;SDS011;2749;53.576;9.822;2022-08-19T04:08:15;34.70;;;25.27;;
5452;SDS011;2749;53.576;9.822;2022-08-19T04:10:43;32.63;;;23.47;;
5452;SDS011;2749;53.576;9.822;2022-08-19T04:13:09;28.20;;;21.97;;
5452;SDS011;2749;53.576;9.822;2022-08-19T04:15:42;23.77;;;16.37;;
5452;SDS011;2749;53.576;9.822;2022-08-19T04:18:09;34.50;;;23.07;;
5452;SDS011;2749;53.576;9.822;2022-08-19T04:20:39;33.33;;;23.23;;
5452;SDS011;2749;53.576;9.822;2022-08-19T04:23:05;32.00;;;21.30;;
5452;SDS011;2749;53.576;9.822;2022-08-19T04:25:38;32.23;;;21.67;;
5452;SDS011;2749;53.576;9.822;2022-08-19T04:28:05;36.57;;;21.80;;
5452;SDS011;2749;53.576;9.822;2022-08-19T04:30:36;30.00;;;21.80;;
5452;SDS011;2749;53.576;9.822;2022-08-19T04:33:03;33.17;;;22.77;;
5452;SDS011;2749;53.576;9.822;2022-08-19T04:35:34;26.43;;;20.13;;
5452;SDS011;2749;53.576;9.822;2022-08-19T04:38:00;29.50;;;21.60;;
5452;SDS011;2749;53.576;9.822;2022-08-19T04:40:26;31.93;;;22.10;;
5452;SDS011;2749;53.576;9.822;2022-08-19T04:43:10;29.93;;;21.87;;
5452;SDS011;2749;53.576;9.822;2022-08-19T04:45:39;30.97;;;22.13;;
5452;SDS011;2749;53.576;9.822;2022-08-19T04:48:05;24.03;;;17.93;;
5452;SDS011;2749;53.576;9.822;2022-08-19T04:50:31;29.67;;;16.30;;
5452;SDS011;2749;53.576;9.822;2022-08-19T04:52:57;29.47;;;22.07;;
5452;SDS011;2749;53.576;9.822;2022-08-19T04:55:24;28.80;;;18.80;;
5452;SDS011;2749;53.576;9.822;2022-08-19T04:57:53;25.90;;;18.50;;
5452;SDS011;2749;53.576;9.822;2022-08-19T05:00:19;21.27;;;16.93;;
5452;SDS011;2749;53.576;9.822;2022-08-19T05:02:45;21.07;;;15.50;;
5452;SDS011;2749;53.576;9.822;2022-08-19T05:05:11;18.73;;;15.47;;
5452;SDS011;2749;53.576;9.822;2022-08-19T05:07:38;23.63;;;18.33;;
5452;SDS011;2749;53.576;9.822;2022-08-19T05:10:05;18.70;;;14.17;;
5452;SDS011;2749;53.576;9.822;2022-08-19T05:12:31;23.07;;;15.13;;
5452;SDS011;2749;53.576;9.822;2022-08-19T05:14:57;26.30;;;13.17;;
5452;SDS011;2749;53.576;9.822;2022-08-19T05:17:24;17.60;;;14.20;;
5452;SDS011;2749;53.576;9.822;2022-08-19T05:19:50;24.47;;;14.33;;
5452;SDS011;2749;53.576;9.822;2022-08-19T05:22:34;19.50;;;16.03;;
5452;SDS011;2749;53.576;9.822;2022-08-19T05:25:06;22.63;;;15.17;;
5452;SDS011;2749;53.576;9.822;2022-08-19T05:27:32;18.47;;;14.87;;
5452;SDS011;2749;53.576;9.822;2022-08-19T05:29:59;18.80;;;14.93;;
5452;SDS011;2749;53.576;9.822;2022-08-19T05:32:25;21.80;;;14.43;;
5452;SDS011;2749;53.576;9.822;2022-08-19T05:34:50;18.30;;;14.47;;
5452;SDS011;2749;53.576;9.822;2022-08-19T05:37:16;17.10;;;13.57;;
5452;SDS011;2749;53.576;9.822;2022-08-19T05:39:42;16.97;;;11.70;;
5452;SDS011;2749;53.576;9.822;2022-08-19T05:42:09;17.20;;;11.27;;
5452;SDS011;2749;53.576;9.822;2022-08-19T05:44:39;14.93;;;10.00;;
5452;SDS011;2749;53.576;9.822;2022-08-19T05:47:08;17.00;;;12.63;;
5452;SDS011;2749;53.576;9.822;2022-08-19T05:49:35;15.30;;;11.67;;
5452;SDS011;2749;53.576;9.822;2022-08-19T05:52:05;20.43;;;13.83;;
5452;SDS011;2749;53.576;9.822;2022-08-19T05:54:32;17.83;;;12.40;;
5452;SDS011;2749;53.576;9.822;2022-08-19T05:56:58;20.23;;;13.63;;
5452;SDS011;2749;53.576;9.822;2022-08-19T05:59:24;18.10;;;11.80;;
5452;SDS011;2749;53.576;9.822;2022-08-19T06:01:52;14.87;;;12.90;;
5452;SDS011;2749;53.576;9.822;2022-08-19T06:04:21;14.47;;;12.73;;
5452;SDS011;2749;53.576;9.822;2022-08-19T06:06:48;14.27;;;11.43;;
5452;SDS011;2749;53.576;9.822;2022-08-19T06:09:16;15.80;;;12.07;;
5452;SDS011;2749;53.576;9.822;2022-08-19T06:11:44;12.80;;;11.13;;
5452;SDS011;2749;53.576;9.822;2022-08-19T06:14:11;11.97;;;10.00;;
5452;SDS011;2749;53.576;9.822;2022-08-19T06:16:38;13.00;;;9.80;;
5452;SDS011;2749;53.576;9.822;2022-08-19T06:19:06;15.47;;;10.57;;
5452;SDS011;2749;53.576;9.822;2022-08-19T06:21:32;13.83;;;9.73;;
5452;SDS011;2749;53.576;9.822;2022-08-19T06:23:58;14.20;;;9.80;;
5452;SDS011;2749;53.576;9.822;2022-08-19T06:26:25;13.33;;;9.67;;
5452;SDS011;2749;53.576;9.822;2022-08-19T06:28:51;22.37;;;9.87;;
5452;SDS011;2749;53.576;9.822;2022-08-19T06:31:22;9.77;;;8.70;;
5452;SDS011;2749;53.576;9.822;2022-08-19T06:33:48;14.73;;;10.17;;
5452;SDS011;2749;53.576;9.822;2022-08-19T06:36:21;14.50;;;7.23;;
5452;SDS011;2749;53.576;9.822;2022-08-19T06:38:52;10.77;;;7.10;;
5452;SDS011;2749;53.576;9.822;2022-08-19T06:41:18;8.77;;;7.00;;
5452;SDS011;2749;53.576;9.822;2022-08-19T06:43:44;8.87;;;7.73;;
5452;SDS011;2749;53.576;9.822;2022-08-19T06:46:12;10.13;;;9.10;;
5452;SDS011;2749;53.576;9.822;2022-08-19T06:48:38;7.97;;;6.77;;
5452;SDS011;2749;53.576;9.822;2022-08-19T06:51:04;8.17;;;6.33;;
5452;SDS011;2749;53.576;9.822;2022-08-19T06:53:30;11.80;;;7.80;;
5452;SDS011;2749;53.576;9.822;2022-08-19T06:55:56;10.13;;;8.00;;
5452;SDS011;2749;53.576;9.822;2022-08-19T06:58:26;14.30;;;7.67;;
5452;SDS011;2749;53.576;9.822;2022-08-19T07:00:53;16.60;;;8.97;;
5452;SDS011;2749;53.576;9.822;2022-08-19T07:03:19;11.07;;;7.63;;
5452;SDS011;2749;53.576;9.822;2022-08-19T07:05:45;9.07;;;7.10;;
5452;SDS011;2749;53.576;9.822;2022-08-19T07:08:12;9.03;;;7.13;;
5452;SDS011;2749;53.576;9.822;2022-08-19T07:10:41;9.07;;;8.20;;
5452;SDS011;2749;53.576;9.822;2022-08-19T07:13:07;8.20;;;7.00;;
5452;SDS011;2749;53.576;9.822;2022-08-19T07:15:33;8.30;;;7.47;;
5452;SDS011;2749;53.576;9.822;2022-08-19T07:18:02;7.07;;;6.33;;
5452;SDS011;2749;53.576;9.822;2022-08-19T07:20:28;16.20;;;13.47;;
5452;SDS011;2749;53.576;9.822;2022-08-19T07:22:54;8.23;;;7.30;;
5452;SDS011;2749;53.576;9.822;2022-08-19T07:25:20;10.07;;;7.13;;
5452;SDS011;2749;53.576;9.822;2022-08-19T07:27:48;7.50;;;6.70;;
5452;SDS011;2749;53.576;9.822;2022-08-19T07:30:15;9.00;;;6.70;;
5452;SDS011;2749;53.576;9.822;2022-08-19T07:32:41;8.20;;;6.80;;
5452;SDS011;2749;53.576;9.822;2022-08-19T07:35:07;7.33;;;6.67;;
5452;SDS011;2749;53.576;9.822;2022-08-19T07:37:34;8.27;;;6.53;;
5452;SDS011;2749;53.576;9.822;2022-08-19T07:40:03;8.30;;;7.20;;
5452;SDS011;2749;53.576;9.822;2022-08-19T07:42:29;7.30;;;6.57;;
5452;SDS011;2749;53.576;9.822;2022-08-19T07:44:55;8.93;;;8.13;;
5452;SDS011;2749;53.576;9.822;2022-08-19T07:47:21;7.67;;;6.97;;
5452;SDS011;2749;53.576;9.822;2022-08-19T07:49:47;8.17;;;6.30;;
5452;SDS011;2749;53.576;9.822;2022-08-19T07:52:13;11.13;;;10.03;;
5452;SDS011;2749;53.576;9.822;2022-08-19T07:54:41;11.37;;;8.70;;
5452;SDS011;2749;53.576;9.822;2022-08-19T07:57:07;13.93;;;9.30;;
5452;SDS011;2749;53.576;9.822;2022-08-19T07:59:33;12.53;;;8.50;;
5452;SDS011;2749;53.576;9.822;2022-08-19T08:02:00;13.03;;;9.43;;
5452;SDS011;2749;53.576;9.822;2022-08-19T08:04:27;13.50;;;9.70;;
5452;SDS011;2749;53.576;9.822;2022-08-19T08:07:12;14.27;;;9.70;;
5452;SDS011;2749;53.576;9.822;2022-08-19T08:09:56;10.57;;;9.47;;
5452;SDS011;2749;53.576;9.822;2022-08-19T08:12:24;16.20;;;9.27;;
5452;SDS011;2749;53.576;9.822;2022-08-19T08:14:54;10.20;;;9.23;;
5452;SDS011;2749;53.576;9.822;2022-08-19T08:17:21;13.57;;;11.07;;
5452;SDS011;2749;53.576;9.822;2022-08-19T08:19:48;11.77;;;10.57;;
5452;SDS011;2749;53.576;9.822;2022-08-19T08:22:16;11.63;;;10.37;;
5452;SDS011;2749;53.576;9.822;2022-08-19T08:25:03;14.40;;;10.07;;
5452;SDS011;2749;53.576;9.822;2022-08-19T08:27:29;10.53;;;9.43;;
5452;SDS011;2749;53.576;9.822;2022-08-19T08:29:56;11.63;;;10.33;;
5452;SDS011;2749;53.576;9.822;2022-08-19T08:32:21;11.70;;;10.10;;
5452;SDS011;2749;53.576;9.822;2022-08-19T08:34:47;13.67;;;12.43;;
5452;SDS011;2749;53.576;9.822;2022-08-19T08:37:13;10.50;;;9.27;;
5452;SDS011;2749;53.576;9.822;2022-08-19T08:39:39;18.23;;;10.83;;
5452;SDS011;2749;53.576;9.822;2022-08-19T08:42:18;11.97;;;10.20;;
5452;SDS011;2749;53.576;9.822;2022-08-19T08:44:56;11.43;;;9.67;;
5452;SDS011;2749;53.576;9.822;2022-08-19T08:47:23;16.10;;;10.70;;
5452;SDS011;2749;53.576;9.822;2022-08-19T08:49:52;12.60;;;9.50;;
5452;SDS011;2749;53.576;9.822;2022-08-19T08:52:25;13.50;;;9.77;;
5452;SDS011;2749;53.576;9.822;2022-08-19T08:54:52;10.20;;;8.80;;
5452;SDS011;2749;53.576;9.822;2022-08-19T08:57:24;10.70;;;9.70;;
5452;SDS011;2749;53.576;9.822;2022-08-19T08:59:52;16.80;;;11.00;;
5452;SDS011;2749;53.576;9.822;2022-08-19T09:02:20;12.60;;;11.33;;
5452;SDS011;2749;53.576;9.822;2022-08-19T09:04:46;11.07;;;9.90;;
5452;SDS011;2749;53.576;9.822;2022-08-19T09:09:40;13.80;;;11.20;;
5452;SDS011;2749;53.576;9.822;2022-08-19T09:12:15;12.90;;;11.30;;
5452;SDS011;2749;53.576;9.822;2022-08-19T09:14:49;12.90;;;10.97;;
5452;SDS011;2749;53.576;9.822;2022-08-19T09:17:16;12.67;;;10.23;;
5452;SDS011;2749;53.576;9.822;2022-08-19T09:19:53;14.47;;;12.20;;
5452;SDS011;2749;53.576;9.822;2022-08-19T09:22:19;14.93;;;13.37;;
5452;SDS011;2749;53.576;9.822;2022-08-19T09:24:49;14.70;;;12.63;;
5452;SDS011;2749;53.576;9.822;2022-08-19T09:27:17;13.80;;;12.07;;
5452;SDS011;2749;53.576;9.822;2022-08-19T09:29:43;14.10;;;11.87;;
5452;SDS011;2749;53.576;9.822;2022-08-19T09:32:09;16.60;;;12.17;;
5452;SDS011;2749;53.576;9.822;2022-08-19T09:34:34;12.90;;;11.77;;
5452;SDS011;2749;53.576;9.822;2022-08-19T09:37:00;13.83;;;12.17;;
5452;SDS011;2749;53.576;9.822;2022-08-19T09:39:27;14.77;;;11.47;;
5452;SDS011;2749;53.576;9.822;2022-08-19T09:41:55;18.83;;;12.33;;
5452;SDS011;2749;53.576;9.822;2022-08-19T09:44:21;14.93;;;12.50;;
5452;SDS011;2749;53.576;9.822;2022-08-19T09:46:48;18.40;;;12.87;;
5452;SDS011;2749;53.576;9.822;2022-08-19T09:49:14;16.83;;;14.57;;
5452;SDS011;2749;53.576;9.822;2022-08-19T09:51:41;18.57;;;13.53;;
5452;SDS011;2749;53.576;9.822;2022-08-19T09:54:07;22.90;;;16.03;;
5452;SDS011;2749;53.576;9.822;2022-08-19T09:56:33;17.47;;;15.60;;
5452;SDS011;2749;53.576;9.822;2022-08-19T09:59:00;19.67;;;17.67;;
5452;SDS011;2749;53.576;9.822;2022-08-19T10:01:27;16.03;;;14.43;;
5452;SDS011;2749;53.576;9.822;2022-08-19T10:03:54;16.80;;;14.50;;
5452;SDS011;2749;53.576;9.822;2022-08-19T10:06:24;24.07;;;16.03;;
5452;SDS011;2749;53.576;9.822;2022-08-19T10:08:50;22.40;;;16.37;;
5452;SDS011;2749;53.576;9.822;2022-08-19T10:11:18;27.10;;;17.30;;
5452;SDS011;2749;53.576;9.822;2022-08-19T10:13:44;20.77;;;16.57;;
5452;SDS011;2749;53.576;9.822;2022-08-19T10:16:11;19.43;;;17.40;;
5452;SDS011;2749;53.576;9.822;2022-08-19T10:18:38;17.33;;;15.13;;
5452;SDS011;2749;53.576;9.822;2022-08-19T10:21:29;19.80;;;15.00;;
5452;SDS011;2749;53.576;9.822;2022-08-19T10:23:54;23.50;;;16.53;;
5452;SDS011;2749;53.576;9.822;2022-08-19T10:26:28;22.20;;;17.80;;
5452;SDS011;2749;53.576;9.822;2022-08-19T10:28:55;24.60;;;17.20;;
5452;SDS011;2749;53.576;9.822;2022-08-19T10:31:23;18.97;;;15.20;;
5452;SDS011;2749;53.576;9.822;2022-08-19T10:33:49;20.40;;;16.83;;
5452;SDS011;2749;53.576;9.822;2022-08-19T10:36:18;24.40;;;17.27;;
5452;SDS011;2749;53.576;9.822;2022-08-19T10:38:46;17.40;;;15.63;;
5452;SDS011;2749;53.576;9.822;2022-08-19T10:41:16;22.33;;;18.10;;
5452;SDS011;2749;53.576;9.822;2022-08-19T10:43:42;18.20;;;16.20;;
5452;SDS011;2749;53.576;9.822;2022-08-19T10:46:11;23.27;;;17.20;;
5452;SDS011;2749;53.576;9.822;2022-08-19T10:48:38;16.23;;;14.60;;
5452;SDS011;2749;53.576;9.822;2022-08-19T10:51:08;19.17;;;15.20;;
5452;SDS011;2749;53.576;9.822;2022-08-19T10:53:53;20.20;;;16.50;;
5452;SDS011;2749;53.576;9.822;2022-08-19T10:56:20;21.37;;;17.23;;
5452;SDS011;2749;53.576;9.822;2022-08-19T10:59:05;19.70;;;16.80;;
5452;SDS011;2749;53.576;9.822;2022-08-19T11:01:33;22.40;;;16.17;;
5452;SDS011;2749;53.576;9.822;2022-08-19T11:04:03;18.07;;;16.17;;
5452;SDS011;2749;53.576;9.822;2022-08-19T11:06:33;20.27;;;17.37;;
5452;SDS011;2749;53.576;9.822;2022-08-19T11:08:59;20.13;;;15.33;;
5452;SDS011;2749;53.576;9.822;2022-08-19T11:11:29;15.80;;;14.13;;
5452;SDS011;2749;53.576;9.822;2022-08-19T11:13:57;22.00;;;19.13;;
5452;SDS011;2749;53.576;9.822;2022-08-19T11:16:25;18.83;;;16.83;;
5452;SDS011;2749;53.576;9.822;2022-08-19T11:18:57;17.90;;;16.10;;
5452;SDS011;2749;53.576;9.822;2022-08-19T11:21:35;17.50;;;15.43;;
5452;SDS011;2749;53.576;9.822;2022-08-19T11:24:06;16.27;;;14.23;;
5452;SDS011;2749;53.576;9.822;2022-08-19T11:26:33;16.77;;;14.27;;
5452;SDS011;2749;53.576;9.822;2022-08-19T11:29:00;20.93;;;17.20;;
5452;SDS011;2749;53.576;9.822;2022-08-19T11:31:28;19.47;;;16.43;;
5452;SDS011;2749;53.576;9.822;2022-08-19T11:33:59;18.00;;;16.20;;
5452;SDS011;2749;53.576;9.822;2022-08-19T11:36:26;19.80;;;17.30;;
5452;SDS011;2749;53.576;9.822;2022-08-19T11:38:53;18.40;;;16.70;;
5452;SDS011;2749;53.576;9.822;2022-08-19T11:41:20;22.10;;;16.80;;
5452;SDS011;2749;53.576;9.822;2022-08-19T11:43:52;20.07;;;18.07;;
5452;SDS011;2749;53.576;9.822;2022-08-19T11:46:21;17.77;;;15.90;;
5452;SDS011;2749;53.576;9.822;2022-08-19T11:48:48;18.97;;;16.67;;
5452;SDS011;2749;53.576;9.822;2022-08-19T11:51:19;19.47;;;16.80;;
5452;SDS011;2749;53.576;9.822;2022-08-19T11:53:56;18.80;;;15.70;;
5452;SDS011;2749;53.576;9.822;2022-08-19T11:56:25;16.60;;;15.00;;
5452;SDS011;2749;53.576;9.822;2022-08-19T11:58:52;16.30;;;14.63;;
5452;SDS011;2749;53.576;9.822;2022-08-19T12:01:19;15.53;;;13.93;;
5452;SDS011;2749;53.576;9.822;2022-08-19T12:03:46;18.93;;;17.00;;
5452;SDS011;2749;53.576;9.822;2022-08-19T12:06:14;17.63;;;16.17;;
5452;SDS011;2749;53.576;9.822;2022-08-19T12:08:41;18.00;;;16.10;;
5452;SDS011;2749;53.576;9.822;2022-08-19T12:11:16;17.90;;;15.93;;
5452;SDS011;2749;53.576;9.822;2022-08-19T12:13:43;18.57;;;16.67;;
5452;SDS011;2749;53.576;9.822;2022-08-19T12:16:14;18.70;;;16.07;;
5452;SDS011;2749;53.576;9.822;2022-08-19T12:18:41;16.03;;;14.63;;
5452;SDS011;2749;53.576;9.822;2022-08-19T12:21:15;13.93;;;12.63;;
5452;SDS011;2749;53.576;9.822;2022-08-19T12:23:41;15.77;;;14.07;;
5452;SDS011;2749;53.576;9.822;2022-08-19T12:26:09;16.07;;;14.57;;
5452;SDS011;2749;53.576;9.822;2022-08-19T12:28:36;15.20;;;13.53;;
5452;SDS011;2749;53.576;9.822;2022-08-19T12:31:02;17.00;;;15.20;;
5452;SDS011;2749;53.576;9.822;2022-08-19T12:33:28;14.90;;;13.67;;
5452;SDS011;2749;53.576;9.822;2022-08-19T12:35:54;15.73;;;14.43;;
5452;SDS011;2749;53.576;9.822;2022-08-19T12:38:21;16.37;;;14.80;;
5452;SDS011;2749;53.576;9.822;2022-08-19T12:40:49;16.47;;;15.03;;
5452;SDS011;2749;53.576;9.822;2022-08-19T12:43:17;17.27;;;15.60;;
5452;SDS011;2749;53.576;9.822;2022-08-19T12:45:44;17.00;;;15.30;;
5452;SDS011;2749;53.576;9.822;2022-08-19T12:48:10;18.13;;;16.37;;
5452;SDS011;2749;53.576;9.822;2022-08-19T12:50:39;18.50;;;16.63;;
5452;SDS011;2749;53.576;9.822;2022-08-19T12:53:05;16.57;;;15.17;;
5452;SDS011;2749;53.576;9.822;2022-08-19T12:55:30;17.10;;;15.63;;
5452;SDS011;2749;53.576;9.822;2022-08-19T12:57:56;17.67;;;16.03;;
5452;SDS011;2749;53.576;9.822;2022-08-19T13:00:22;19.00;;;17.17;;
5452;SDS011;2749;53.576;9.822;2022-08-19T13:02:50;18.90;;;14.97;;
5452;SDS011;2749;53.576;9.822;2022-08-19T13:05:18;15.07;;;13.77;;
5452;SDS011;2749;53.576;9.822;2022-08-19T13:07:45;14.17;;;12.90;;
5452;SDS011;2749;53.576;9.822;2022-08-19T13:10:12;17.27;;;15.37;;
5452;SDS011;2749;53.576;9.822;2022-08-19T13:12:40;16.83;;;15.13;;
5452;SDS011;2749;53.576;9.822;2022-08-19T13:15:06;15.43;;;14.03;;
5452;SDS011;2749;53.576;9.822;2022-08-19T13:17:33;16.60;;;15.20;;
5452;SDS011;2749;53.576;9.822;2022-08-19T13:19:59;16.50;;;14.90;;
5452;SDS011;2749;53.576;9.822;2022-08-19T13:22:25;19.97;;;17.27;;
5452;SDS011;2749;53.576;9.822;2022-08-19T13:24:51;16.77;;;15.17;;
5452;SDS011;2749;53.576;9.822;2022-08-19T13:27:18;17.87;;;16.17;;
5452;SDS011;2749;53.576;9.822;2022-08-19T13:29:44;18.93;;;12.90;;
5452;SDS011;2749;53.576;9.822;2022-08-19T13:32:29;16.50;;;14.90;;
5452;SDS011;2749;53.576;9.822;2022-08-19T13:35:15;17.80;;;16.07;;
5452;SDS011;2749;53.576;9.822;2022-08-19T13:37:41;18.70;;;15.27;;
5452;SDS011;2749;53.576;9.822;2022-08-19T13:40:08;18.60;;;16.83;;
5452;SDS011;2749;53.576;9.822;2022-08-19T13:42:40;18.13;;;16.20;;
5452;SDS011;2749;53.576;9.822;2022-08-19T13:45:06;17.40;;;15.80;;
5452;SDS011;2749;53.576;9.822;2022-08-19T13:47:33;17.17;;;15.57;;
5452;SDS011;2749;53.576;9.822;2022-08-19T13:49:59;16.80;;;15.20;;
5452;SDS011;2749;53.576;9.822;2022-08-19T13:52:25;15.30;;;14.00;;
5452;SDS011;2749;53.576;9.822;2022-08-19T13:54:51;15.03;;;13.73;;
5452;SDS011;2749;53.576;9.822;2022-08-19T13:57:17;14.03;;;12.73;;
5452;SDS011;2749;53.576;9.822;2022-08-19T13:59:43;14.10;;;12.80;;
5452;SDS011;2749;53.576;9.822;2022-08-19T14:02:09;15.80;;;14.40;;
5452;SDS011;2749;53.576;9.822;2022-08-19T14:04:35;15.47;;;14.17;;
5452;SDS011;2749;53.576;9.822;2022-08-19T14:07:02;15.17;;;13.67;;
5452;SDS011;2749;53.576;9.822;2022-08-19T14:09:28;13.77;;;12.47;;
5452;SDS011;2749;53.576;9.822;2022-08-19T14:11:54;15.10;;;13.40;;
5452;SDS011;2749;53.576;9.822;2022-08-19T14:14:20;13.80;;;12.43;;
5452;SDS011;2749;53.576;9.822;2022-08-19T14:16:47;18.17;;;16.57;;
5452;SDS011;2749;53.576;9.822;2022-08-19T14:19:13;14.87;;;13.47;;
5452;SDS011;2749;53.576;9.822;2022-08-19T14:21:39;16.97;;;15.43;;
5452;SDS011;2749;53.576;9.822;2022-08-19T14:24:05;17.93;;;16.17;;
5452;SDS011;2749;53.576;9.822;2022-08-19T14:26:31;17.10;;;15.33;;
5452;SDS011;2749;53.576;9.822;2022-08-19T14:28:57;16.73;;;15.10;;
5452;SDS011;2749;53.576;9.822;2022-08-19T14:31:23;16.67;;;15.07;;
5452;SDS011;2749;53.576;9.822;2022-08-19T14:33:50;15.50;;;14.00;;
5452;SDS011;2749;53.576;9.822;2022-08-19T14:36:17;16.00;;;14.60;;
5452;SDS011;2749;53.576;9.822;2022-08-19T14:38:43;14.70;;;13.40;;
5452;SDS011;2749;53.576;9.822;2022-08-19T14:41:13;11.70;;;10.60;;
5452;SDS011;2749;53.576;9.822;2022-08-19T14:43:40;13.47;;;12.27;;
5452;SDS011;2749;53.576;9.822;2022-08-19T14:46:07;13.23;;;12.03;;
5452;SDS011;2749;53.576;9.822;2022-08-19T14:48:35;14.30;;;13.00;;
5452;SDS011;2749;53.576;9.822;2022-08-19T14:51:03;11.40;;;10.43;;
5452;SDS011;2749;53.576;9.822;2022-08-19T14:53:29;13.33;;;11.97;;
5452;SDS011;2749;53.576;9.822;2022-08-19T14:55:55;12.00;;;10.90;;